sensor_id;sensor_type;location;lat;lon;timestamp;P1;durP1;ratioP1;P2;durP2;ratioP2
38779;SDS011;29273;49.962;9.768;2023-11-19T00:02:13;1.45;;;1.20;;
38779;SDS011;29273;49.962;9.768;2023-11-19T00:04:38;1.48;;;1.35;;
38779;SDS011;29273;49.962;9.768;2023-11-19T00:07:06;1.52;;;1.42;;
38779;SDS011;29273;49.962;9.768;2023-11-19T00:09:33;1.42;;;1.33;;
38779;SDS011;29273;49.962;9.768;2023-11-19T00:11:59;1.83;;;1.38;;
38779;SDS011;29273;49.962;9.768;2023-11-19T00:14:25;1.20;;;1.10;;
38779;SDS011;29273;49.962;9.768;2023-11-19T00:16:51;1.30;;;1.20;;
38779;SDS011;29273;49.962;9.768;2023-11-19T00:19:19;1.40;;;1.27;;
38779;SDS011;29273;49.962;9.768;2023-11-19T00:21:44;1.33;;;1.23;;
38779;SDS011;29273;49.962;9.768;2023-11-19T00:24:11;1.70;;;1.48;;
38779;SDS011;29273;49.962;9.768;2023-11-19T00:26:37;1.42;;;1.33;;
38779;SDS011;29273;49.962;9.768;2023-11-19T00:29:03;1.23;;;1.00;;
38779;SDS011;29273;49.962;9.768;2023-11-19T00:31:29;1.77;;;1.38;;
38779;SDS011;29273;49.962;9.768;2023-11-19T00:33:56;1.38;;;1.10;;
38779;SDS011;29273;49.962;9.768;2023-11-19T00:36:22;1.45;;;1.20;;
38779;SDS011;29273;49.962;9.768;2023-11-19T00:38:49;1.30;;;1.20;;
38779;SDS011;29273;49.962;9.768;2023-11-19T00:41:15;1.40;;;1.27;;
38779;SDS011;29273;49.962;9.768;2023-11-19T00:43:43;1.38;;;1.20;;
38779;SDS011;29273;49.962;9.768;2023-11-19T00:46:10;1.55;;;1.30;;
38779;SDS011;29273;49.962;9.768;2023-11-19T00:48:41;1.58;;;1.33;;
38779;SDS011;29273;49.962;9.768;2023-11-19T00:51:07;1.52;;;1.27;;
38779;SDS011;29273;49.962;9.768;2023-11-19T00:53:32;1.50;;;1.30;;
38779;SDS011;29273;49.962;9.768;2023-11-19T00:56:00;1.88;;;1.40;;
38779;SDS011;29273;49.962;9.768;2023-11-19T00:58:25;1.27;;;1.17;;
38779;SDS011;29273;49.962;9.768;2023-11-19T01:00:51;1.77;;;1.45;;
38779;SDS011;29273;49.962;9.768;2023-11-19T01:03:16;2.10;;;1.48;;
38779;SDS011;29273;49.962;9.768;2023-11-19T01:05:42;2.28;;;1.48;;
38779;SDS011;29273;49.962;9.768;2023-11-19T01:08:09;2.60;;;1.70;;
38779;SDS011;29273;49.962;9.768;2023-11-19T01:10:36;1.67;;;1.58;;
38779;SDS011;29273;49.962;9.768;2023-11-19T01:13:02;1.63;;;1.50;;
38779;SDS011;29273;49.962;9.768;2023-11-19T01:15:34;1.90;;;1.50;;
38779;SDS011;29273;49.962;9.768;2023-11-19T01:17:59;1.35;;;1.25;;
38779;SDS011;29273;49.962;9.768;2023-11-19T01:20:27;1.30;;;1.20;;
38779;SDS011;29273;49.962;9.768;2023-11-19T01:22:54;1.38;;;1.27;;
38779;SDS011;29273;49.962;9.768;2023-11-19T01:25:19;1.60;;;1.40;;
38779;SDS011;29273;49.962;9.768;2023-11-19T01:27:45;1.42;;;1.20;;
38779;SDS011;29273;49.962;9.768;2023-11-19T01:30:10;1.77;;;1.42;;
38779;SDS011;29273;49.962;9.768;2023-11-19T01:32:38;1.38;;;1.13;;
38779;SDS011;29273;49.962;9.768;2023-11-19T01:35:04;1.40;;;1.30;;
38779;SDS011;29273;49.962;9.768;2023-11-19T01:37:30;1.50;;;1.38;;
38779;SDS011;29273;49.962;9.768;2023-11-19T01:39:57;1.70;;;1.30;;
38779;SDS011;29273;49.962;9.768;2023-11-19T01:42:23;1.45;;;1.35;;
38779;SDS011;29273;49.962;9.768;2023-11-19T01:44:54;1.65;;;1.55;;
38779;SDS011;29273;49.962;9.768;2023-11-19T01:47:22;1.52;;;1.42;;
38779;SDS011;29273;49.962;9.768;2023-11-19T01:49:48;1.48;;;1.20;;
38779;SDS011;29273;49.962;9.768;2023-11-19T01:52:14;1.40;;;1.30;;
38779;SDS011;29273;49.962;9.768;2023-11-19T01:54:39;1.80;;;1.55;;
38779;SDS011;29273;49.962;9.768;2023-11-19T01:57:04;1.50;;;1.40;;
38779;SDS011;29273;49.962;9.768;2023-11-19T01:59:31;1.27;;;1.17;;
38779;SDS011;29273;49.962;9.768;2023-11-19T02:01:57;2.00;;;1.55;;
38779;SDS011;29273;49.962;9.768;2023-11-19T02:04:23;1.63;;;1.50;;
38779;SDS011;29273;49.962;9.768;2023-11-19T02:06:48;2.25;;;1.60;;
38779;SDS011;29273;49.962;9.768;2023-11-19T02:09:17;1.67;;;1.58;;
38779;SDS011;29273;49.962;9.768;2023-11-19T02:11:45;2.65;;;1.70;;
38779;SDS011;29273;49.962;9.768;2023-11-19T02:14:14;1.67;;;1.40;;
38779;SDS011;29273;49.962;9.768;2023-11-19T02:16:40;1.50;;;1.40;;
38779;SDS011;29273;49.962;9.768;2023-11-19T02:19:06;1.75;;;1.50;;
38779;SDS011;29273;49.962;9.768;2023-11-19T02:21:32;1.50;;;1.40;;
38779;SDS011;29273;49.962;9.768;2023-11-19T02:23:58;1.63;;;1.52;;
38779;SDS011;29273;49.962;9.768;2023-11-19T02:26:38;1.63;;;1.30;;
38779;SDS011;29273;49.962;9.768;2023-11-19T02:29:08;1.90;;;1.70;;
38779;SDS011;29273;49.962;9.768;2023-11-19T02:31:33;1.40;;;1.30;;
38779;SDS011;29273;49.962;9.768;2023-11-19T02:34:00;1.90;;;1.77;;
38779;SDS011;29273;49.962;9.768;2023-11-19T02:36:27;5.05;;;2.40;;
38779;SDS011;29273;49.962;9.768;2023-11-19T02:38:53;3.40;;;2.42;;
38779;SDS011;29273;49.962;9.768;2023-11-19T02:41:18;2.30;;;2.00;;
38779;SDS011;29273;49.962;9.768;2023-11-19T02:43:44;2.72;;;1.67;;
38779;SDS011;29273;49.962;9.768;2023-11-19T02:46:09;1.40;;;1.30;;
38779;SDS011;29273;49.962;9.768;2023-11-19T02:48:36;1.65;;;1.40;;
38779;SDS011;29273;49.962;9.768;2023-11-19T02:51:02;1.60;;;1.50;;
38779;SDS011;29273;49.962;9.768;2023-11-19T02:53:34;1.48;;;1.30;;
38779;SDS011;29273;49.962;9.768;2023-11-19T02:56:00;1.35;;;1.25;;
38779;SDS011;29273;49.962;9.768;2023-11-19T02:58:45;1.25;;;1.15;;
38779;SDS011;29273;49.962;9.768;2023-11-19T03:01:11;1.50;;;1.23;;
38779;SDS011;29273;49.962;9.768;2023-11-19T03:03:49;1.33;;;1.20;;
38779;SDS011;29273;49.962;9.768;2023-11-19T03:06:19;1.73;;;1.40;;
38779;SDS011;29273;49.962;9.768;2023-11-19T03:08:47;1.27;;;1.17;;
38779;SDS011;29273;49.962;9.768;2023-11-19T03:11:13;1.50;;;1.40;;
38779;SDS011;29273;49.962;9.768;2023-11-19T03:13:39;1.83;;;1.40;;
38779;SDS011;29273;49.962;9.768;2023-11-19T03:16:04;1.30;;;1.20;;
38779;SDS011;29273;49.962;9.768;2023-11-19T03:18:30;1.50;;;1.23;;
38779;SDS011;29273;49.962;9.768;2023-11-19T03:20:56;1.30;;;1.20;;
38779;SDS011;29273;49.962;9.768;2023-11-19T03:23:24;1.80;;;1.25;;
38779;SDS011;29273;49.962;9.768;2023-11-19T03:25:50;1.30;;;1.20;;
38779;SDS011;29273;49.962;9.768;2023-11-19T03:28:15;1.45;;;1.35;;
38779;SDS011;29273;49.962;9.768;2023-11-19T03:30:41;1.20;;;1.10;;
38779;SDS011;29273;49.962;9.768;2023-11-19T03:33:07;1.20;;;1.10;;
38779;SDS011;29273;49.962;9.768;2023-11-19T03:35:33;1.10;;;1.00;;
38779;SDS011;29273;49.962;9.768;2023-11-19T03:37:59;1.45;;;1.13;;
38779;SDS011;29273;49.962;9.768;2023-11-19T03:40:24;1.83;;;1.25;;
38779;SDS011;29273;49.962;9.768;2023-11-19T03:42:50;1.20;;;1.02;;
38779;SDS011;29273;49.962;9.768;2023-11-19T03:45:16;1.38;;;1.20;;
38779;SDS011;29273;49.962;9.768;2023-11-19T03:47:41;1.00;;;0.90;;
38779;SDS011;29273;49.962;9.768;2023-11-19T03:50:07;1.50;;;1.40;;
38779;SDS011;29273;49.962;9.768;2023-11-19T03:52:36;1.20;;;1.10;;
38779;SDS011;29273;49.962;9.768;2023-11-19T03:55:01;1.27;;;1.17;;
38779;SDS011;29273;49.962;9.768;2023-11-19T03:57:30;1.95;;;1.23;;
38779;SDS011;29273;49.962;9.768;2023-11-19T03:59:56;1.20;;;1.10;;
38779;SDS011;29273;49.962;9.768;2023-11-19T04:02:23;1.10;;;0.98;;
38779;SDS011;29273;49.962;9.768;2023-11-19T04:04:53;1.25;;;1.15;;
38779;SDS011;29273;49.962;9.768;2023-11-19T04:07:19;1.20;;;1.10;;
38779;SDS011;29273;49.962;9.768;2023-11-19T04:09:45;1.13;;;1.02;;
38779;SDS011;29273;49.962;9.768;2023-11-19T04:12:11;0.70;;;0.70;;
38779;SDS011;29273;49.962;9.768;2023-11-19T04:14:37;1.13;;;0.90;;
38779;SDS011;29273;49.962;9.768;2023-11-19T04:17:03;0.80;;;0.80;;
38779;SDS011;29273;49.962;9.768;2023-11-19T04:19:28;0.70;;;0.70;;
38779;SDS011;29273;49.962;9.768;2023-11-19T04:21:54;0.70;;;0.70;;
38779;SDS011;29273;49.962;9.768;2023-11-19T04:24:19;0.73;;;0.73;;
38779;SDS011;29273;49.962;9.768;2023-11-19T04:26:45;0.60;;;0.60;;
38779;SDS011;29273;49.962;9.768;2023-11-19T04:29:12;0.50;;;0.50;;
38779;SDS011;29273;49.962;9.768;2023-11-19T04:31:38;0.80;;;0.70;;
38779;SDS011;29273;49.962;9.768;2023-11-19T04:34:05;0.63;;;0.60;;
38779;SDS011;29273;49.962;9.768;2023-11-19T04:36:31;0.57;;;0.57;;
38779;SDS011;29273;49.962;9.768;2023-11-19T04:38:58;0.60;;;0.60;;
38779;SDS011;29273;49.962;9.768;2023-11-19T04:41:24;0.70;;;0.70;;
38779;SDS011;29273;49.962;9.768;2023-11-19T04:43:51;0.93;;;0.82;;
38779;SDS011;29273;49.962;9.768;2023-11-19T04:46:16;2.10;;;0.90;;
38779;SDS011;29273;49.962;9.768;2023-11-19T04:48:41;0.82;;;0.77;;
38779;SDS011;29273;49.962;9.768;2023-11-19T04:51:07;0.73;;;0.73;;
38779;SDS011;29273;49.962;9.768;2023-11-19T04:53:34;0.88;;;0.88;;
38779;SDS011;29273;49.962;9.768;2023-11-19T04:56:00;1.10;;;0.70;;
38779;SDS011;29273;49.962;9.768;2023-11-19T04:58:25;0.85;;;0.80;;
38779;SDS011;29273;49.962;9.768;2023-11-19T05:00:53;0.90;;;0.80;;
38779;SDS011;29273;49.962;9.768;2023-11-19T05:03:19;1.00;;;0.70;;
38779;SDS011;29273;49.962;9.768;2023-11-19T05:05:44;1.00;;;0.90;;
38779;SDS011;29273;49.962;9.768;2023-11-19T05:08:10;1.02;;;0.93;;
38779;SDS011;29273;49.962;9.768;2023-11-19T05:10:36;1.17;;;0.80;;
38779;SDS011;29273;49.962;9.768;2023-11-19T05:13:02;1.00;;;0.88;;
38779;SDS011;29273;49.962;9.768;2023-11-19T05:15:27;0.70;;;0.70;;
38779;SDS011;29273;49.962;9.768;2023-11-19T05:17:53;1.00;;;0.90;;
38779;SDS011;29273;49.962;9.768;2023-11-19T05:20:18;0.60;;;0.60;;
38779;SDS011;29273;49.962;9.768;2023-11-19T05:22:44;0.68;;;0.68;;
38779;SDS011;29273;49.962;9.768;2023-11-19T05:25:11;0.73;;;0.73;;
38779;SDS011;29273;49.962;9.768;2023-11-19T05:27:36;0.65;;;0.60;;
38779;SDS011;29273;49.962;9.768;2023-11-19T05:30:03;0.70;;;0.70;;
38779;SDS011;29273;49.962;9.768;2023-11-19T05:32:33;0.60;;;0.60;;
38779;SDS011;29273;49.962;9.768;2023-11-19T05:34:58;0.60;;;0.57;;
38779;SDS011;29273;49.962;9.768;2023-11-19T05:37:24;0.40;;;0.40;;
38779;SDS011;29273;49.962;9.768;2023-11-19T05:39:50;0.75;;;0.60;;
38779;SDS011;29273;49.962;9.768;2023-11-19T05:42:16;0.50;;;0.50;;
38779;SDS011;29273;49.962;9.768;2023-11-19T05:44:42;0.50;;;0.50;;
38779;SDS011;29273;49.962;9.768;2023-11-19T05:47:07;0.50;;;0.50;;
38779;SDS011;29273;49.962;9.768;2023-11-19T05:49:33;0.43;;;0.43;;
38779;SDS011;29273;49.962;9.768;2023-11-19T05:51:58;0.90;;;0.50;;
38779;SDS011;29273;49.962;9.768;2023-11-19T05:54:24;0.47;;;0.45;;
38779;SDS011;29273;49.962;9.768;2023-11-19T05:56:50;0.45;;;0.40;;
38779;SDS011;29273;49.962;9.768;2023-11-19T05:59:19;0.55;;;0.43;;
38779;SDS011;29273;49.962;9.768;2023-11-19T06:01:45;0.65;;;0.40;;
38779;SDS011;29273;49.962;9.768;2023-11-19T06:04:10;0.40;;;0.30;;
38779;SDS011;29273;49.962;9.768;2023-11-19T06:06:36;0.50;;;0.45;;
38779;SDS011;29273;49.962;9.768;2023-11-19T06:09:02;0.30;;;0.30;;
38779;SDS011;29273;49.962;9.768;2023-11-19T06:11:29;0.47;;;0.40;;
38779;SDS011;29273;49.962;9.768;2023-11-19T06:13:55;0.30;;;0.30;;
38779;SDS011;29273;49.962;9.768;2023-11-19T06:16:21;0.30;;;0.30;;
38779;SDS011;29273;49.962;9.768;2023-11-19T06:18:46;0.40;;;0.30;;
38779;SDS011;29273;49.962;9.768;2023-11-19T06:21:12;0.47;;;0.40;;
38779;SDS011;29273;49.962;9.768;2023-11-19T06:23:38;0.50;;;0.30;;
38779;SDS011;29273;49.962;9.768;2023-11-19T06:26:03;0.28;;;0.20;;
38779;SDS011;29273;49.962;9.768;2023-11-19T06:28:30;0.30;;;0.30;;
38779;SDS011;29273;49.962;9.768;2023-11-19T06:30:56;0.30;;;0.30;;
38779;SDS011;29273;49.962;9.768;2023-11-19T06:33:23;0.40;;;0.30;;
38779;SDS011;29273;49.962;9.768;2023-11-19T06:35:49;0.25;;;0.25;;
38779;SDS011;29273;49.962;9.768;2023-11-19T06:38:15;0.20;;;0.20;;
38779;SDS011;29273;49.962;9.768;2023-11-19T06:40:40;0.28;;;0.20;;
38779;SDS011;29273;49.962;9.768;2023-11-19T06:43:06;0.20;;;0.20;;
38779;SDS011;29273;49.962;9.768;2023-11-19T06:45:33;0.85;;;0.30;;
38779;SDS011;29273;49.962;9.768;2023-11-19T06:48:02;0.30;;;0.30;;
38779;SDS011;29273;49.962;9.768;2023-11-19T06:50:29;0.30;;;0.30;;
38779;SDS011;29273;49.962;9.768;2023-11-19T06:52:54;0.20;;;0.20;;
38779;SDS011;29273;49.962;9.768;2023-11-19T06:55:20;0.30;;;0.30;;
38779;SDS011;29273;49.962;9.768;2023-11-19T06:57:45;0.30;;;0.30;;
38779;SDS011;29273;49.962;9.768;2023-11-19T07:00:11;0.30;;;0.30;;
38779;SDS011;29273;49.962;9.768;2023-11-19T07:02:37;0.20;;;0.20;;
38779;SDS011;29273;49.962;9.768;2023-11-19T07:05:03;0.30;;;0.30;;
38779;SDS011;29273;49.962;9.768;2023-11-19T07:07:30;0.20;;;0.20;;
38779;SDS011;29273;49.962;9.768;2023-11-19T07:09:56;0.20;;;0.20;;
38779;SDS011;29273;49.962;9.768;2023-11-19T07:12:22;0.20;;;0.20;;
38779;SDS011;29273;49.962;9.768;2023-11-19T07:14:47;0.30;;;0.30;;
38779;SDS011;29273;49.962;9.768;2023-11-19T07:17:13;0.47;;;0.47;;
38779;SDS011;29273;49.962;9.768;2023-11-19T07:19:38;0.73;;;0.40;;
38779;SDS011;29273;49.962;9.768;2023-11-19T07:22:04;0.65;;;0.50;;
38779;SDS011;29273;49.962;9.768;2023-11-19T07:24:31;0.65;;;0.60;;
38779;SDS011;29273;49.962;9.768;2023-11-19T07:26:57;0.70;;;0.60;;
38779;SDS011;29273;49.962;9.768;2023-11-19T07:29:22;1.35;;;0.85;;
38779;SDS011;29273;49.962;9.768;2023-11-19T07:31:48;1.33;;;0.95;;
38779;SDS011;29273;49.962;9.768;2023-11-19T07:34:14;1.83;;;0.90;;
38779;SDS011;29273;49.962;9.768;2023-11-19T07:36:39;1.38;;;1.00;;
38779;SDS011;29273;49.962;9.768;2023-11-19T07:39:05;1.10;;;0.82;;
38779;SDS011;29273;49.962;9.768;2023-11-19T07:41:31;1.08;;;0.90;;
38779;SDS011;29273;49.962;9.768;2023-11-19T07:43:57;1.00;;;0.90;;
38779;SDS011;29273;49.962;9.768;2023-11-19T07:46:22;0.80;;;0.65;;
38779;SDS011;29273;49.962;9.768;2023-11-19T07:48:48;1.30;;;0.90;;
38779;SDS011;29273;49.962;9.768;2023-11-19T07:51:13;1.45;;;0.70;;
38779;SDS011;29273;49.962;9.768;2023-11-19T07:53:40;0.70;;;0.70;;
38779;SDS011;29273;49.962;9.768;2023-11-19T07:56:06;1.08;;;0.68;;
38779;SDS011;29273;49.962;9.768;2023-11-19T07:58:33;0.68;;;0.50;;
38779;SDS011;29273;49.962;9.768;2023-11-19T08:00:58;0.63;;;0.47;;
38779;SDS011;29273;49.962;9.768;2023-11-19T08:03:24;0.32;;;0.32;;
38779;SDS011;29273;49.962;9.768;2023-11-19T08:05:49;0.43;;;0.30;;
38779;SDS011;29273;49.962;9.768;2023-11-19T08:08:16;0.40;;;0.40;;
38779;SDS011;29273;49.962;9.768;2023-11-19T08:10:42;0.43;;;0.40;;
38779;SDS011;29273;49.962;9.768;2023-11-19T08:13:08;0.40;;;0.40;;
38779;SDS011;29273;49.962;9.768;2023-11-19T08:15:34;0.75;;;0.40;;
38779;SDS011;29273;49.962;9.768;2023-11-19T08:17:59;0.30;;;0.30;;
38779;SDS011;29273;49.962;9.768;2023-11-19T08:20:25;0.20;;;0.20;;
38779;SDS011;29273;49.962;9.768;2023-11-19T08:22:50;0.40;;;0.40;;
38779;SDS011;29273;49.962;9.768;2023-11-19T08:25:16;0.35;;;0.35;;
38779;SDS011;29273;49.962;9.768;2023-11-19T08:27:41;0.47;;;0.40;;
38779;SDS011;29273;49.962;9.768;2023-11-19T08:30:08;1.20;;;0.40;;
38779;SDS011;29273;49.962;9.768;2023-11-19T08:32:34;0.40;;;0.40;;
38779;SDS011;29273;49.962;9.768;2023-11-19T08:34:59;0.30;;;0.30;;
38779;SDS011;29273;49.962;9.768;2023-11-19T08:37:25;0.50;;;0.40;;
38779;SDS011;29273;49.962;9.768;2023-11-19T08:39:50;1.38;;;0.60;;
38779;SDS011;29273;49.962;9.768;2023-11-19T08:42:16;0.30;;;0.30;;
38779;SDS011;29273;49.962;9.768;2023-11-19T08:44:42;0.40;;;0.30;;
38779;SDS011;29273;49.962;9.768;2023-11-19T08:47:12;0.30;;;0.30;;
38779;SDS011;29273;49.962;9.768;2023-11-19T08:49:38;1.08;;;0.32;;
38779;SDS011;29273;49.962;9.768;2023-11-19T08:52:04;0.22;;;0.22;;
38779;SDS011;29273;49.962;9.768;2023-11-19T08:54:33;0.30;;;0.30;;
38779;SDS011;29273;49.962;9.768;2023-11-19T08:56:59;0.30;;;0.30;;
38779;SDS011;29273;49.962;9.768;2023-11-19T08:59:28;0.22;;;0.22;;
38779;SDS011;29273;49.962;9.768;2023-11-19T09:01:54;0.40;;;0.30;;
38779;SDS011;29273;49.962;9.768;2023-11-19T09:04:20;0.40;;;0.30;;
38779;SDS011;29273;49.962;9.768;2023-11-19T09:06:48;0.40;;;0.32;;
38779;SDS011;29273;49.962;9.768;2023-11-19T09:09:13;0.25;;;0.25;;
38779;SDS011;29273;49.962;9.768;2023-11-19T09:11:39;0.30;;;0.30;;
38779;SDS011;29273;49.962;9.768;2023-11-19T09:14:05;0.50;;;0.30;;
38779;SDS011;29273;49.962;9.768;2023-11-19T09:16:31;0.52;;;0.50;;
38779;SDS011;29273;49.962;9.768;2023-11-19T09:18:57;0.60;;;0.25;;
38779;SDS011;29273;49.962;9.768;2023-11-19T09:21:25;0.82;;;0.40;;
38779;SDS011;29273;49.962;9.768;2023-11-19T09:23:50;0.35;;;0.30;;
38779;SDS011;29273;49.962;9.768;2023-11-19T09:26:16;0.40;;;0.40;;
38779;SDS011;29273;49.962;9.768;2023-11-19T09:28:41;0.30;;;0.30;;
38779;SDS011;29273;49.962;9.768;2023-11-19T09:31:16;1.27;;;0.50;;
38779;SDS011;29273;49.962;9.768;2023-11-19T09:33:43;0.75;;;0.50;;
38779;SDS011;29273;49.962;9.768;2023-11-19T09:36:09;0.68;;;0.40;;
38779;SDS011;29273;49.962;9.768;2023-11-19T09:38:36;0.52;;;0.43;;
38779;SDS011;29273;49.962;9.768;2023-11-19T09:41:04;0.57;;;0.57;;
38779;SDS011;29273;49.962;9.768;2023-11-19T09:43:34;1.50;;;0.70;;
38779;SDS011;29273;49.962;9.768;2023-11-19T09:46:05;2.33;;;0.63;;
38779;SDS011;29273;49.962;9.768;2023-11-19T09:48:35;1.65;;;0.85;;
38779;SDS011;29273;49.962;9.768;2023-11-19T09:51:02;1.05;;;0.70;;
38779;SDS011;29273;49.962;9.768;2023-11-19T09:53:29;1.27;;;0.70;;
38779;SDS011;29273;49.962;9.768;2023-11-19T09:55:55;1.25;;;0.65;;
38779;SDS011;29273;49.962;9.768;2023-11-19T09:58:22;0.65;;;0.50;;
38779;SDS011;29273;49.962;9.768;2023-11-19T10:00:49;0.73;;;0.40;;
38779;SDS011;29273;49.962;9.768;2023-11-19T10:03:15;0.90;;;0.60;;
38779;SDS011;29273;49.962;9.768;2023-11-19T10:05:41;1.15;;;0.50;;
38779;SDS011;29273;49.962;9.768;2023-11-19T10:08:06;1.77;;;0.50;;
38779;SDS011;29273;49.962;9.768;2023-11-19T10:10:33;1.55;;;0.55;;
38779;SDS011;29273;49.962;9.768;2023-11-19T10:12:59;1.65;;;0.70;;
38779;SDS011;29273;49.962;9.768;2023-11-19T10:15:25;0.77;;;0.50;;
38779;SDS011;29273;49.962;9.768;2023-11-19T10:17:52;1.65;;;0.50;;
38779;SDS011;29273;49.962;9.768;2023-11-19T10:20:20;1.63;;;0.60;;
38779;SDS011;29273;49.962;9.768;2023-11-19T10:22:46;1.80;;;1.05;;
38779;SDS011;29273;49.962;9.768;2023-11-19T10:25:24;1.60;;;0.70;;
38779;SDS011;29273;49.962;9.768;2023-11-19T10:27:51;1.00;;;0.70;;
38779;SDS011;29273;49.962;9.768;2023-11-19T10:30:21;1.08;;;0.60;;
38779;SDS011;29273;49.962;9.768;2023-11-19T10:35:33;1.55;;;0.70;;
38779;SDS011;29273;49.962;9.768;2023-11-19T10:38:00;3.25;;;0.70;;
38779;SDS011;29273;49.962;9.768;2023-11-19T10:40:38;3.17;;;0.68;;
38779;SDS011;29273;49.962;9.768;2023-11-19T10:43:07;1.63;;;0.60;;
38779;SDS011;29273;49.962;9.768;2023-11-19T10:45:34;2.47;;;0.70;;
38779;SDS011;29273;49.962;9.768;2023-11-19T10:48:00;0.63;;;0.50;;
38779;SDS011;29273;49.962;9.768;2023-11-19T10:50:27;0.73;;;0.30;;
38779;SDS011;29273;49.962;9.768;2023-11-19T10:52:55;1.40;;;0.65;;
38779;SDS011;29273;49.962;9.768;2023-11-19T10:55:25;1.83;;;0.70;;
38779;SDS011;29273;49.962;9.768;2023-11-19T10:57:52;1.10;;;0.50;;
38779;SDS011;29273;49.962;9.768;2023-11-19T11:00:23;3.55;;;0.70;;
38779;SDS011;29273;49.962;9.768;2023-11-19T11:02:51;1.50;;;0.65;;
38779;SDS011;29273;49.962;9.768;2023-11-19T11:05:21;0.88;;;0.50;;
38779;SDS011;29273;49.962;9.768;2023-11-19T11:07:47;0.88;;;0.40;;
38779;SDS011;29273;49.962;9.768;2023-11-19T11:10:14;1.08;;;0.50;;
38779;SDS011;29273;49.962;9.768;2023-11-19T11:12:41;1.00;;;0.52;;
38779;SDS011;29273;49.962;9.768;2023-11-19T11:15:09;2.72;;;0.60;;
38779;SDS011;29273;49.962;9.768;2023-11-19T11:17:38;1.45;;;0.63;;
38779;SDS011;29273;49.962;9.768;2023-11-19T11:20:05;1.70;;;0.60;;
38779;SDS011;29273;49.962;9.768;2023-11-19T11:22:36;3.00;;;0.90;;
38779;SDS011;29273;49.962;9.768;2023-11-19T11:25:19;1.88;;;0.73;;
38779;SDS011;29273;49.962;9.768;2023-11-19T11:33:39;2.45;;;0.80;;
38779;SDS011;29273;49.962;9.768;2023-11-19T11:36:22;2.00;;;0.95;;
38779;SDS011;29273;49.962;9.768;2023-11-19T11:38:48;2.90;;;1.00;;
38779;SDS011;29273;49.962;9.768;2023-11-19T11:46:46;2.78;;;0.90;;
38779;SDS011;29273;49.962;9.768;2023-11-19T11:49:07;3.35;;;0.82;;
38779;SDS011;29273;49.962;9.768;2023-11-19T11:54:31;1.27;;;0.70;;
38779;SDS011;29273;49.962;9.768;2023-11-19T11:57:03;1.67;;;0.70;;
38779;SDS011;29273;49.962;9.768;2023-11-19T12:02:11;2.13;;;0.90;;
38779;SDS011;29273;49.962;9.768;2023-11-19T12:04:39;2.58;;;0.82;;
38779;SDS011;29273;49.962;9.768;2023-11-19T12:07:08;2.05;;;0.82;;
38779;SDS011;29273;49.962;9.768;2023-11-19T12:09:40;1.42;;;0.60;;
38779;SDS011;29273;49.962;9.768;2023-11-19T12:20:09;2.10;;;0.70;;
38779;SDS011;29273;49.962;9.768;2023-11-19T12:22:39;2.08;;;0.85;;
38779;SDS011;29273;49.962;9.768;2023-11-19T12:25:06;3.95;;;1.10;;
38779;SDS011;29273;49.962;9.768;2023-11-19T12:27:34;2.08;;;0.73;;
38779;SDS011;29273;49.962;9.768;2023-11-19T12:30:03;2.55;;;0.77;;
38779;SDS011;29273;49.962;9.768;2023-11-19T12:32:42;1.85;;;0.60;;
38779;SDS011;29273;49.962;9.768;2023-11-19T12:35:09;1.73;;;0.60;;
38779;SDS011;29273;49.962;9.768;2023-11-19T12:37:44;2.05;;;0.70;;
38779;SDS011;29273;49.962;9.768;2023-11-19T12:42:45;1.45;;;0.60;;
38779;SDS011;29273;49.962;9.768;2023-11-19T12:45:12;2.45;;;1.00;;
38779;SDS011;29273;49.962;9.768;2023-11-19T12:47:41;3.13;;;1.20;;
38779;SDS011;29273;49.962;9.768;2023-11-19T12:50:12;3.15;;;1.00;;
38779;SDS011;29273;49.962;9.768;2023-11-19T12:52:38;1.73;;;1.00;;
38779;SDS011;29273;49.962;9.768;2023-11-19T12:55:04;3.13;;;1.02;;
38779;SDS011;29273;49.962;9.768;2023-11-19T12:57:41;2.38;;;0.88;;
38779;SDS011;29273;49.962;9.768;2023-11-19T13:00:17;8.27;;;6.38;;
38779;SDS011;29273;49.962;9.768;2023-11-19T13:02:47;11.23;;;7.40;;
38779;SDS011;29273;49.962;9.768;2023-11-19T13:05:32;6.13;;;4.55;;
38779;SDS011;29273;49.962;9.768;2023-11-19T13:10:49;4.38;;;2.55;;
38779;SDS011;29273;49.962;9.768;2023-11-19T13:13:16;4.35;;;2.90;;
38779;SDS011;29273;49.962;9.768;2023-11-19T13:15:42;3.30;;;2.20;;
38779;SDS011;29273;49.962;9.768;2023-11-19T13:18:10;3.88;;;2.50;;
38779;SDS011;29273;49.962;9.768;2023-11-19T13:20:36;5.20;;;3.85;;
38779;SDS011;29273;49.962;9.768;2023-11-19T13:23:02;4.70;;;2.80;;
38779;SDS011;29273;49.962;9.768;2023-11-19T13:25:29;2.85;;;2.05;;
38779;SDS011;29273;49.962;9.768;2023-11-19T13:27:55;2.55;;;1.52;;
38779;SDS011;29273;49.962;9.768;2023-11-19T13:30:22;1.88;;;1.15;;
38779;SDS011;29273;49.962;9.768;2023-11-19T13:32:48;2.35;;;1.00;;
38779;SDS011;29273;49.962;9.768;2023-11-19T13:35:14;1.08;;;0.70;;
38779;SDS011;29273;49.962;9.768;2023-11-19T13:37:39;1.35;;;0.60;;
38779;SDS011;29273;49.962;9.768;2023-11-19T13:40:09;2.15;;;0.70;;
38779;SDS011;29273;49.962;9.768;2023-11-19T13:42:38;2.30;;;0.70;;
38779;SDS011;29273;49.962;9.768;2023-11-19T13:47:36;1.55;;;0.70;;
38779;SDS011;29273;49.962;9.768;2023-11-19T13:50:03;2.45;;;0.70;;
38779;SDS011;29273;49.962;9.768;2023-11-19T13:52:31;1.50;;;0.50;;
38779;SDS011;29273;49.962;9.768;2023-11-19T13:54:57;1.55;;;0.60;;
38779;SDS011;29273;49.962;9.768;2023-11-19T13:57:22;0.65;;;0.60;;
38779;SDS011;29273;49.962;9.768;2023-11-19T13:59:48;1.67;;;0.57;;
38779;SDS011;29273;49.962;9.768;2023-11-19T14:02:13;1.40;;;0.45;;
38779;SDS011;29273;49.962;9.768;2023-11-19T14:04:39;2.88;;;0.70;;
38779;SDS011;29273;49.962;9.768;2023-11-19T14:07:04;2.20;;;0.60;;
38779;SDS011;29273;49.962;9.768;2023-11-19T14:09:30;1.70;;;0.75;;
38779;SDS011;29273;49.962;9.768;2023-11-19T14:11:55;2.17;;;0.70;;
38779;SDS011;29273;49.962;9.768;2023-11-19T14:14:21;1.48;;;0.80;;
38779;SDS011;29273;49.962;9.768;2023-11-19T14:16:46;2.83;;;0.85;;
38779;SDS011;29273;49.962;9.768;2023-11-19T14:19:12;1.15;;;0.50;;
38779;SDS011;29273;49.962;9.768;2023-11-19T14:21:39;2.08;;;0.70;;
38779;SDS011;29273;49.962;9.768;2023-11-19T14:24:04;2.38;;;0.68;;
38779;SDS011;29273;49.962;9.768;2023-11-19T14:26:30;3.25;;;0.60;;
38779;SDS011;29273;49.962;9.768;2023-11-19T14:28:56;2.22;;;0.70;;
38779;SDS011;29273;49.962;9.768;2023-11-19T14:31:21;2.10;;;0.68;;
38779;SDS011;29273;49.962;9.768;2023-11-19T14:33:47;2.22;;;0.65;;
38779;SDS011;29273;49.962;9.768;2023-11-19T14:36:13;3.03;;;0.70;;
38779;SDS011;29273;49.962;9.768;2023-11-19T14:38:38;2.25;;;0.70;;
38779;SDS011;29273;49.962;9.768;2023-11-19T14:41:05;1.67;;;0.63;;
38779;SDS011;29273;49.962;9.768;2023-11-19T14:43:31;1.35;;;0.60;;
38779;SDS011;29273;49.962;9.768;2023-11-19T14:45:57;2.28;;;0.60;;
38779;SDS011;29273;49.962;9.768;2023-11-19T14:48:22;1.90;;;0.77;;
38779;SDS011;29273;49.962;9.768;2023-11-19T14:50:48;3.92;;;1.08;;
38779;SDS011;29273;49.962;9.768;2023-11-19T14:53:15;2.75;;;0.98;;
38779;SDS011;29273;49.962;9.768;2023-11-19T14:55:41;1.77;;;0.57;;
38779;SDS011;29273;49.962;9.768;2023-11-19T14:58:06;2.15;;;0.75;;
38779;SDS011;29273;49.962;9.768;2023-11-19T15:00:32;2.72;;;0.90;;
38779;SDS011;29273;49.962;9.768;2023-11-19T15:02:59;2.08;;;0.75;;
38779;SDS011;29273;49.962;9.768;2023-11-19T15:05:24;2.38;;;0.85;;
38779;SDS011;29273;49.962;9.768;2023-11-19T15:07:50;3.53;;;0.95;;
38779;SDS011;29273;49.962;9.768;2023-11-19T15:10:16;2.63;;;0.80;;
38779;SDS011;29273;49.962;9.768;2023-11-19T15:12:41;3.40;;;1.00;;
38779;SDS011;29273;49.962;9.768;2023-11-19T15:15:07;2.17;;;0.90;;
38779;SDS011;29273;49.962;9.768;2023-11-19T15:17:40;1.65;;;0.73;;
38779;SDS011;29273;49.962;9.768;2023-11-19T15:20:06;2.97;;;1.10;;
38779;SDS011;29273;49.962;9.768;2023-11-19T15:22:32;2.83;;;0.95;;